sensor_id;sensor_type;location;lat;lon;timestamp;temperature;humidity
26803;DHT22;14378;51.796;5.808;2022-07-06T00:03:10;14.00;99.90
26803;DHT22;14378;51.796;5.808;2022-07-06T00:05:10;14.00;99.90
26803;DHT22;14378;51.796;5.808;2022-07-06T00:07:12;13.90;99.90
26803;DHT22;14378;51.796;5.808;2022-07-06T00:09:16;13.90;99.90
26803;DHT22;14378;51.796;5.808;2022-07-06T00:11:17;13.80;99.90
26803;DHT22;14378;51.796;5.808;2022-07-06T00:13:18;13.80;99.90
26803;DHT22;14378;51.796;5.808;2022-07-06T00:15:19;13.80;99.90
26803;DHT22;14378;51.796;5.808;2022-07-06T00:17:23;13.80;99.90
26803;DHT22;14378;51.796;5.808;2022-07-06T00:19:25;13.70;99.90
26803;DHT22;14378;51.796;5.808;2022-07-06T00:21:26;13.70;99.90
26803;DHT22;14378;51.796;5.808;2022-07-06T00:23:27;13.70;99.90
26803;DHT22;14378;51.796;5.808;2022-07-06T00:25:28;13.70;99.90
26803;DHT22;14378;51.796;5.808;2022-07-06T00:27:29;13.60;99.90
26803;DHT22;14378;51.796;5.808;2022-07-06T00:29:30;13.70;99.90
26803;DHT22;14378;51.796;5.808;2022-07-06T00:31:32;13.60;99.90
26803;DHT22;14378;51.796;5.808;2022-07-06T00:33:33;13.60;99.90
26803;DHT22;14378;51.796;5.808;2022-07-06T00:35:34;13.60;99.90
26803;DHT22;14378;51.796;5.808;2022-07-06T00:37:35;13.60;99.90
26803;DHT22;14378;51.796;5.808;2022-07-06T00:39:36;13.60;99.90
26803;DHT22;14378;51.796;5.808;2022-07-06T00:41:37;13.60;99.90
26803;DHT22;14378;51.796;5.808;2022-07-06T00:43:50;13.50;99.90
26803;DHT22;14378;51.796;5.808;2022-07-06T00:45:51;13.50;99.90
26803;DHT22;14378;51.796;5.808;2022-07-06T00:47:53;13.50;99.90
26803;DHT22;14378;51.796;5.808;2022-07-06T00:49:55;13.40;99.90
26803;DHT22;14378;51.796;5.808;2022-07-06T00:52:16;13.40;99.90
26803;DHT22;14378;51.796;5.808;2022-07-06T00:54:17;13.40;99.90
26803;DHT22;14378;51.796;5.808;2022-07-06T00:56:19;13.40;99.90
26803;DHT22;14378;51.796;5.808;2022-07-06T00:58:20;13.40;99.90
26803;DHT22;14378;51.796;5.808;2022-07-06T01:00:27;13.40;99.90
26803;DHT22;14378;51.796;5.808;2022-07-06T01:02:31;13.30;99.90
26803;DHT22;14378;51.796;5.808;2022-07-06T01:04:32;13.30;99.90
26803;DHT22;14378;51.796;5.808;2022-07-06T01:06:33;13.30;99.90
26803;DHT22;14378;51.796;5.808;2022-07-06T01:08:35;13.30;99.90
26803;DHT22;14378;51.796;5.808;2022-07-06T01:10:37;13.30;99.90
26803;DHT22;14378;51.796;5.808;2022-07-06T01:12:42;13.20;99.90
26803;DHT22;14378;51.796;5.808;2022-07-06T01:14:45;13.20;99.90
26803;DHT22;14378;51.796;5.808;2022-07-06T01:16:47;13.20;99.90
26803;DHT22;14378;51.796;5.808;2022-07-06T01:18:49;13.20;99.90
26803;DHT22;14378;51.796;5.808;2022-07-06T01:21:09;13.20;99.90
26803;DHT22;14378;51.796;5.808;2022-07-06T01:23:11;13.10;99.90
26803;DHT22;14378;51.796;5.808;2022-07-06T01:25:12;13.10;99.90
26803;DHT22;14378;51.796;5.808;2022-07-06T01:27:13;13.10;99.90
26803;DHT22;14378;51.796;5.808;2022-07-06T01:29:14;13.00;99.90
26803;DHT22;14378;51.796;5.808;2022-07-06T01:31:21;13.10;99.90
26803;DHT22;14378;51.796;5.808;2022-07-06T01:33:25;13.00;99.90
26803;DHT22;14378;51.796;5.808;2022-07-06T01:35:26;13.00;99.90
26803;DHT22;14378;51.796;5.808;2022-07-06T01:37:32;13.00;99.90
26803;DHT22;14378;51.796;5.808;2022-07-06T01:39:33;13.00;99.90
26803;DHT22;14378;51.796;5.808;2022-07-06T01:41:34;12.90;99.90
26803;DHT22;14378;51.796;5.808;2022-07-06T01:43:36;12.90;99.90
26803;DHT22;14378;51.796;5.808;2022-07-06T01:45:37;12.90;99.90
26803;DHT22;14378;51.796;5.808;2022-07-06T01:47:41;12.80;99.90
26803;DHT22;14378;51.796;5.808;2022-07-06T01:49:43;12.80;99.90
26803;DHT22;14378;51.796;5.808;2022-07-06T01:51:45;12.80;99.90
26803;DHT22;14378;51.796;5.808;2022-07-06T01:53:47;12.80;99.90
26803;DHT22;14378;51.796;5.808;2022-07-06T01:55:50;12.70;99.90
26803;DHT22;14378;51.796;5.808;2022-07-06T01:57:51;12.70;99.90
26803;DHT22;14378;51.796;5.808;2022-07-06T01:59:55;12.70;99.90
26803;DHT22;14378;51.796;5.808;2022-07-06T02:01:56;12.60;99.90
26803;DHT22;14378;51.796;5.808;2022-07-06T02:03:57;12.60;99.90
26803;DHT22;14378;51.796;5.808;2022-07-06T02:05:59;12.50;99.90
26803;DHT22;14378;51.796;5.808;2022-07-06T02:08:01;12.50;99.90
26803;DHT22;14378;51.796;5.808;2022-07-06T02:10:02;12.50;99.90
26803;DHT22;14378;51.796;5.808;2022-07-06T02:12:04;12.40;99.90
26803;DHT22;14378;51.796;5.808;2022-07-06T02:14:06;12.40;99.90
26803;DHT22;14378;51.796;5.808;2022-07-06T02:16:12;12.50;99.90
26803;DHT22;14378;51.796;5.808;2022-07-06T02:18:13;12.40;99.90
26803;DHT22;14378;51.796;5.808;2022-07-06T02:20:15;12.40;99.90
26803;DHT22;14378;51.796;5.808;2022-07-06T02:22:15;12.40;99.90
26803;DHT22;14378;51.796;5.808;2022-07-06T02:24:17;12.40;99.90
26803;DHT22;14378;51.796;5.808;2022-07-06T02:26:20;12.30;99.90
26803;DHT22;14378;51.796;5.808;2022-07-06T02:28:21;12.30;99.90
26803;DHT22;14378;51.796;5.808;2022-07-06T02:30:24;12.20;99.90
26803;DHT22;14378;51.796;5.808;2022-07-06T02:32:26;12.20;99.90
26803;DHT22;14378;51.796;5.808;2022-07-06T02:34:27;12.20;99.90
26803;DHT22;14378;51.796;5.808;2022-07-06T02:36:29;12.10;99.90
26803;DHT22;14378;51.796;5.808;2022-07-06T02:38:35;12.10;99.90
26803;DHT22;14378;51.796;5.808;2022-07-06T02:40:36;12.10;99.90
26803;DHT22;14378;51.796;5.808;2022-07-06T02:42:38;12.10;99.90
26803;DHT22;14378;51.796;5.808;2022-07-06T02:44:41;12.10;99.90
26803;DHT22;14378;51.796;5.808;2022-07-06T02:46:42;12.10;99.90
26803;DHT22;14378;51.796;5.808;2022-07-06T02:48:44;12.10;99.90
26803;DHT22;14378;51.796;5.808;2022-07-06T02:50:45;12.10;99.90
26803;DHT22;14378;51.796;5.808;2022-07-06T02:52:46;12.10;99.90
26803;DHT22;14378;51.796;5.808;2022-07-06T02:54:47;12.10;99.90
26803;DHT22;14378;51.796;5.808;2022-07-06T02:56:50;12.10;99.90
26803;DHT22;14378;51.796;5.808;2022-07-06T02:58:55;12.10;99.90
26803;DHT22;14378;51.796;5.808;2022-07-06T03:00:59;12.00;99.90
26803;DHT22;14378;51.796;5.808;2022-07-06T03:03:00;12.00;99.90
26803;DHT22;14378;51.796;5.808;2022-07-06T03:05:02;12.00;99.90
26803;DHT22;14378;51.796;5.808;2022-07-06T03:07:04;11.90;99.90
26803;DHT22;14378;51.796;5.808;2022-07-06T03:09:05;11.90;99.90
26803;DHT22;14378;51.796;5.808;2022-07-06T03:11:06;11.80;99.90
26803;DHT22;14378;51.796;5.808;2022-07-06T03:13:11;11.80;99.90
26803;DHT22;14378;51.796;5.808;2022-07-06T03:15:12;11.80;99.90
26803;DHT22;14378;51.796;5.808;2022-07-06T03:17:16;11.70;99.90
26803;DHT22;14378;51.796;5.808;2022-07-06T03:19:17;11.80;99.90
26803;DHT22;14378;51.796;5.808;2022-07-06T03:21:18;11.80;99.90
26803;DHT22;14378;51.796;5.808;2022-07-06T03:23:20;11.70;99.90
26803;DHT22;14378;51.796;5.808;2022-07-06T03:25:23;11.70;99.90
26803;DHT22;14378;51.796;5.808;2022-07-06T03:27:25;11.80;99.90
26803;DHT22;14378;51.796;5.808;2022-07-06T03:29:26;11.80;99.90
26803;DHT22;14378;51.796;5.808;2022-07-06T03:31:27;11.70;99.90
26803;DHT22;14378;51.796;5.808;2022-07-06T03:33:29;11.70;99.90
26803;DHT22;14378;51.796;5.808;2022-07-06T03:35:30;11.70;99.90
26803;DHT22;14378;51.796;5.808;2022-07-06T03:37:32;11.70;99.90
26803;DHT22;14378;51.796;5.808;2022-07-06T03:39:34;11.70;99.90
26803;DHT22;14378;51.796;5.808;2022-07-06T03:41:35;11.70;99.90
26803;DHT22;14378;51.796;5.808;2022-07-06T03:43:37;11.70;99.90
26803;DHT22;14378;51.796;5.808;2022-07-06T03:45:39;11.70;99.90
26803;DHT22;14378;51.796;5.808;2022-07-06T03:47:40;11.70;99.90
26803;DHT22;14378;51.796;5.808;2022-07-06T03:49:41;11.70;99.90
26803;DHT22;14378;51.796;5.808;2022-07-06T03:51:44;11.60;99.90
26803;DHT22;14378;51.796;5.808;2022-07-06T03:53:45;11.60;99.90
26803;DHT22;14378;51.796;5.808;2022-07-06T03:55:50;11.60;99.90
26803;DHT22;14378;51.796;5.808;2022-07-06T03:58:11;11.50;99.90
26803;DHT22;14378;51.796;5.808;2022-07-06T04:00:16;11.60;99.90
26803;DHT22;14378;51.796;5.808;2022-07-06T04:02:27;11.60;99.90
26803;DHT22;14378;51.796;5.808;2022-07-06T04:04:28;11.60;99.90
26803;DHT22;14378;51.796;5.808;2022-07-06T04:06:30;11.70;99.90
26803;DHT22;14378;51.796;5.808;2022-07-06T04:08:38;11.70;99.90
26803;DHT22;14378;51.796;5.808;2022-07-06T04:10:39;11.80;99.90
26803;DHT22;14378;51.796;5.808;2022-07-06T04:12:44;11.80;99.90
26803;DHT22;14378;51.796;5.808;2022-07-06T04:14:47;11.90;99.90
26803;DHT22;14378;51.796;5.808;2022-07-06T04:16:49;11.90;99.90
26803;DHT22;14378;51.796;5.808;2022-07-06T04:18:50;12.00;99.90
26803;DHT22;14378;51.796;5.808;2022-07-06T04:20:51;12.00;99.90
26803;DHT22;14378;51.796;5.808;2022-07-06T04:22:55;12.10;99.90
26803;DHT22;14378;51.796;5.808;2022-07-06T04:24:58;12.10;99.90
26803;DHT22;14378;51.796;5.808;2022-07-06T04:26:59;12.20;99.90
26803;DHT22;14378;51.796;5.808;2022-07-06T04:29:01;12.20;99.90
26803;DHT22;14378;51.796;5.808;2022-07-06T04:31:03;12.30;99.90
26803;DHT22;14378;51.796;5.808;2022-07-06T04:33:05;12.40;99.90
26803;DHT22;14378;51.796;5.808;2022-07-06T04:35:09;12.50;99.90
26803;DHT22;14378;51.796;5.808;2022-07-06T04:37:10;12.50;99.90
26803;DHT22;14378;51.796;5.808;2022-07-06T04:39:12;12.60;99.90
26803;DHT22;14378;51.796;5.808;2022-07-06T04:41:13;12.70;99.90
26803;DHT22;14378;51.796;5.808;2022-07-06T04:43:14;12.70;99.90
26803;DHT22;14378;51.796;5.808;2022-07-06T04:45:15;12.70;99.90
26803;DHT22;14378;51.796;5.808;2022-07-06T04:47:18;12.80;99.90
26803;DHT22;14378;51.796;5.808;2022-07-06T04:49:20;12.90;99.90
26803;DHT22;14378;51.796;5.808;2022-07-06T04:51:21;12.90;99.90
26803;DHT22;14378;51.796;5.808;2022-07-06T04:53:23;13.00;99.90
26803;DHT22;14378;51.796;5.808;2022-07-06T04:55:26;13.10;99.90
26803;DHT22;14378;51.796;5.808;2022-07-06T04:57:27;13.20;99.90
26803;DHT22;14378;51.796;5.808;2022-07-06T04:59:32;13.20;99.90
26803;DHT22;14378;51.796;5.808;2022-07-06T05:01:35;13.30;99.90
26803;DHT22;14378;51.796;5.808;2022-07-06T05:03:36;13.30;99.90
26803;DHT22;14378;51.796;5.808;2022-07-06T05:05:41;13.40;99.90
26803;DHT22;14378;51.796;5.808;2022-07-06T05:07:46;13.50;99.90
26803;DHT22;14378;51.796;5.808;2022-07-06T05:09:48;13.50;99.90
26803;DHT22;14378;51.796;5.808;2022-07-06T05:11:53;13.60;99.90
26803;DHT22;14378;51.796;5.808;2022-07-06T05:13:54;13.60;99.90
26803;DHT22;14378;51.796;5.808;2022-07-06T05:15:56;13.70;99.90
26803;DHT22;14378;51.796;5.808;2022-07-06T05:17:57;13.70;99.90
26803;DHT22;14378;51.796;5.808;2022-07-06T05:20:00;13.80;99.90
26803;DHT22;14378;51.796;5.808;2022-07-06T05:22:02;13.90;99.90
26803;DHT22;14378;51.796;5.808;2022-07-06T05:24:04;13.90;99.90
26803;DHT22;14378;51.796;5.808;2022-07-06T05:26:06;14.00;99.90
26803;DHT22;14378;51.796;5.808;2022-07-06T05:28:08;14.00;99.90
26803;DHT22;14378;51.796;5.808;2022-07-06T05:30:09;14.00;99.90
26803;DHT22;14378;51.796;5.808;2022-07-06T05:32:11;14.10;99.90
26803;DHT22;14378;51.796;5.808;2022-07-06T05:34:17;14.10;99.90
26803;DHT22;14378;51.796;5.808;2022-07-06T05:36:18;14.10;99.90
26803;DHT22;14378;51.796;5.808;2022-07-06T05:38:20;14.20;99.90
26803;DHT22;14378;51.796;5.808;2022-07-06T05:40:23;14.20;99.90
26803;DHT22;14378;51.796;5.808;2022-07-06T05:42:27;14.30;99.90
26803;DHT22;14378;51.796;5.808;2022-07-06T05:44:28;14.40;99.90
26803;DHT22;14378;51.796;5.808;2022-07-06T05:46:30;14.40;99.90
26803;DHT22;14378;51.796;5.808;2022-07-06T05:48:31;14.50;99.90
26803;DHT22;14378;51.796;5.808;2022-07-06T05:50:51;14.50;99.90
26803;DHT22;14378;51.796;5.808;2022-07-06T05:53:02;14.60;99.90
26803;DHT22;14378;51.796;5.808;2022-07-06T05:55:05;14.70;99.90
26803;DHT22;14378;51.796;5.808;2022-07-06T05:57:07;14.80;99.90
26803;DHT22;14378;51.796;5.808;2022-07-06T05:59:12;14.90;99.90
26803;DHT22;14378;51.796;5.808;2022-07-06T06:01:13;15.00;99.90
26803;DHT22;14378;51.796;5.808;2022-07-06T06:03:19;15.00;99.90
26803;DHT22;14378;51.796;5.808;2022-07-06T06:05:23;15.10;99.90
26803;DHT22;14378;51.796;5.808;2022-07-06T06:07:27;15.20;99.90
26803;DHT22;14378;51.796;5.808;2022-07-06T06:09:28;15.30;99.90
26803;DHT22;14378;51.796;5.808;2022-07-06T06:11:30;15.40;99.90
26803;DHT22;14378;51.796;5.808;2022-07-06T06:13:31;15.40;99.90
26803;DHT22;14378;51.796;5.808;2022-07-06T06:15:35;15.50;99.90
26803;DHT22;14378;51.796;5.808;2022-07-06T06:17:36;15.60;99.90
26803;DHT22;14378;51.796;5.808;2022-07-06T06:19:37;15.70;99.90
26803;DHT22;14378;51.796;5.808;2022-07-06T06:21:38;15.70;99.90
26803;DHT22;14378;51.796;5.808;2022-07-06T06:23:40;15.80;99.90
26803;DHT22;14378;51.796;5.808;2022-07-06T06:25:41;15.90;99.90
26803;DHT22;14378;51.796;5.808;2022-07-06T06:27:45;16.00;99.90
26803;DHT22;14378;51.796;5.808;2022-07-06T06:29:46;16.10;99.90
26803;DHT22;14378;51.796;5.808;2022-07-06T06:31:47;16.20;99.90
26803;DHT22;14378;51.796;5.808;2022-07-06T06:33:50;16.40;99.90
26803;DHT22;14378;51.796;5.808;2022-07-06T06:35:54;16.50;99.90
26803;DHT22;14378;51.796;5.808;2022-07-06T06:37:56;16.60;99.90
26803;DHT22;14378;51.796;5.808;2022-07-06T06:39:58;16.80;99.90
26803;DHT22;14378;51.796;5.808;2022-07-06T06:41:59;16.90;99.90
26803;DHT22;14378;51.796;5.808;2022-07-06T06:44:07;17.00;99.90
26803;DHT22;14378;51.796;5.808;2022-07-06T06:46:13;17.20;99.90
26803;DHT22;14378;51.796;5.808;2022-07-06T06:48:14;17.20;99.90
26803;DHT22;14378;51.796;5.808;2022-07-06T06:50:16;17.20;99.90
26803;DHT22;14378;51.796;5.808;2022-07-06T06:52:19;17.30;99.90
26803;DHT22;14378;51.796;5.808;2022-07-06T06:54:21;17.30;99.90
26803;DHT22;14378;51.796;5.808;2022-07-06T06:56:22;17.40;99.90
26803;DHT22;14378;51.796;5.808;2022-07-06T06:58:23;17.50;99.90
26803;DHT22;14378;51.796;5.808;2022-07-06T07:00:24;17.50;99.90
26803;DHT22;14378;51.796;5.808;2022-07-06T07:02:26;17.60;99.90
26803;DHT22;14378;51.796;5.808;2022-07-06T07:04:27;17.70;99.90
26803;DHT22;14378;51.796;5.808;2022-07-06T07:06:30;17.70;99.90
26803;DHT22;14378;51.796;5.808;2022-07-06T07:08:31;17.70;99.90
26803;DHT22;14378;51.796;5.808;2022-07-06T07:10:32;17.80;99.90
26803;DHT22;14378;51.796;5.808;2022-07-06T07:12:33;17.80;99.90
26803;DHT22;14378;51.796;5.808;2022-07-06T07:14:34;17.80;99.90
26803;DHT22;14378;51.796;5.808;2022-07-06T07:16:38;17.90;99.90
26803;DHT22;14378;51.796;5.808;2022-07-06T07:18:39;18.00;99.90
26803;DHT22;14378;51.796;5.808;2022-07-06T07:20:40;18.00;99.90
26803;DHT22;14378;51.796;5.808;2022-07-06T07:22:41;18.10;99.90
26803;DHT22;14378;51.796;5.808;2022-07-06T07:24:42;18.20;99.90
26803;DHT22;14378;51.796;5.808;2022-07-06T07:26:43;18.20;99.90
26803;DHT22;14378;51.796;5.808;2022-07-06T07:28:44;18.30;99.90
26803;DHT22;14378;51.796;5.808;2022-07-06T07:30:44;18.40;99.90
26803;DHT22;14378;51.796;5.808;2022-07-06T07:32:46;18.50;99.90
26803;DHT22;14378;51.796;5.808;2022-07-06T07:34:47;18.60;99.90
26803;DHT22;14378;51.796;5.808;2022-07-06T07:36:49;18.60;99.90
26803;DHT22;14378;51.796;5.808;2022-07-06T07:38:50;18.60;99.90
26803;DHT22;14378;51.796;5.808;2022-07-06T07:40:54;18.70;99.90
26803;DHT22;14378;51.796;5.808;2022-07-06T07:42:55;18.80;99.90
26803;DHT22;14378;51.796;5.808;2022-07-06T07:44:57;18.80;99.90
26803;DHT22;14378;51.796;5.808;2022-07-06T07:46:58;18.90;99.90
26803;DHT22;14378;51.796;5.808;2022-07-06T07:48:59;19.00;99.90
26803;DHT22;14378;51.796;5.808;2022-07-06T07:51:03;19.20;99.90
26803;DHT22;14378;51.796;5.808;2022-07-06T07:53:04;19.30;99.90
26803;DHT22;14378;51.796;5.808;2022-07-06T07:55:06;19.50;99.90
26803;DHT22;14378;51.796;5.808;2022-07-06T07:57:07;19.60;99.90
26803;DHT22;14378;51.796;5.808;2022-07-06T07:59:09;19.60;99.90
26803;DHT22;14378;51.796;5.808;2022-07-06T08:01:13;19.60;99.90
26803;DHT22;14378;51.796;5.808;2022-07-06T08:03:14;19.60;99.90
26803;DHT22;14378;51.796;5.808;2022-07-06T08:05:16;19.60;99.90
26803;DHT22;14378;51.796;5.808;2022-07-06T08:07:18;19.60;99.90
26803;DHT22;14378;51.796;5.808;2022-07-06T08:09:20;19.60;99.90
26803;DHT22;14378;51.796;5.808;2022-07-06T08:11:21;19.70;99.90
26803;DHT22;14378;51.796;5.808;2022-07-06T08:13:32;19.70;99.90
26803;DHT22;14378;51.796;5.808;2022-07-06T08:15:34;19.80;99.90
26803;DHT22;14378;51.796;5.808;2022-07-06T08:17:35;19.90;99.90
26803;DHT22;14378;51.796;5.808;2022-07-06T08:19:36;19.90;99.90
26803;DHT22;14378;51.796;5.808;2022-07-06T08:21:37;20.00;99.90
26803;DHT22;14378;51.796;5.808;2022-07-06T08:23:39;20.00;99.90
26803;DHT22;14378;51.796;5.808;2022-07-06T08:25:40;20.00;99.90
26803;DHT22;14378;51.796;5.808;2022-07-06T08:27:41;20.10;99.90
26803;DHT22;14378;51.796;5.808;2022-07-06T08:29:42;20.30;99.90
26803;DHT22;14378;51.796;5.808;2022-07-06T08:31:43;20.30;99.90
26803;DHT22;14378;51.796;5.808;2022-07-06T08:33:45;20.40;99.90
26803;DHT22;14378;51.796;5.808;2022-07-06T08:35:46;20.50;99.90
26803;DHT22;14378;51.796;5.808;2022-07-06T08:37:47;20.70;99.90
26803;DHT22;14378;51.796;5.808;2022-07-06T08:39:48;21.00;99.90
26803;DHT22;14378;51.796;5.808;2022-07-06T08:41:51;21.30;99.90
26803;DHT22;14378;51.796;5.808;2022-07-06T08:43:53;21.60;99.90
26803;DHT22;14378;51.796;5.808;2022-07-06T08:45:55;21.90;99.90
26803;DHT22;14378;51.796;5.808;2022-07-06T08:47:59;22.10;99.90
26803;DHT22;14378;51.796;5.808;2022-07-06T08:50:04;22.20;99.90
26803;DHT22;14378;51.796;5.808;2022-07-06T08:52:08;22.20;99.90
26803;DHT22;14378;51.796;5.808;2022-07-06T08:54:17;22.00;99.90
26803;DHT22;14378;51.796;5.808;2022-07-06T08:56:20;22.00;99.90
26803;DHT22;14378;51.796;5.808;2022-07-06T08:58:25;22.10;99.90
26803;DHT22;14378;51.796;5.808;2022-07-06T09:00:28;22.20;97.80
26803;DHT22;14378;51.796;5.808;2022-07-06T09:02:29;22.20;99.90
26803;DHT22;14378;51.796;5.808;2022-07-06T09:04:32;22.30;99.90
26803;DHT22;14378;51.796;5.808;2022-07-06T09:06:34;22.40;99.90
26803;DHT22;14378;51.796;5.808;2022-07-06T09:08:36;22.40;99.90
26803;DHT22;14378;51.796;5.808;2022-07-06T09:10:38;22.60;99.90
26803;DHT22;14378;51.796;5.808;2022-07-06T09:12:39;22.70;98.80
26803;DHT22;14378;51.796;5.808;2022-07-06T09:14:40;22.80;99.20
26803;DHT22;14378;51.796;5.808;2022-07-06T09:16:42;23.00;99.80
26803;DHT22;14378;51.796;5.808;2022-07-06T09:18:44;23.00;95.20
26803;DHT22;14378;51.796;5.808;2022-07-06T09:20:46;23.20;97.30
26803;DHT22;14378;51.796;5.808;2022-07-06T09:22:47;23.20;97.30
26803;DHT22;14378;51.796;5.808;2022-07-06T09:24:49;23.30;99.10
26803;DHT22;14378;51.796;5.808;2022-07-06T09:26:51;23.50;97.40
26803;DHT22;14378;51.796;5.808;2022-07-06T09:28:56;23.60;97.40
26803;DHT22;14378;51.796;5.808;2022-07-06T09:31:07;23.50;97.50
26803;DHT22;14378;51.796;5.808;2022-07-06T09:33:10;23.60;98.10
26803;DHT22;14378;51.796;5.808;2022-07-06T09:37:22;23.40;97.70
26803;DHT22;14378;51.796;5.808;2022-07-06T09:39:29;23.60;98.90
26803;DHT22;14378;51.796;5.808;2022-07-06T09:41:31;23.60;97.50
26803;DHT22;14378;51.796;5.808;2022-07-06T09:43:33;23.80;98.10
26803;DHT22;14378;51.796;5.808;2022-07-06T09:45:36;23.90;96.10
26803;DHT22;14378;51.796;5.808;2022-07-06T09:47:38;23.90;96.10
26803;DHT22;14378;51.796;5.808;2022-07-06T09:49:41;24.00;96.10
26803;DHT22;14378;51.796;5.808;2022-07-06T09:51:41;24.20;97.90
26803;DHT22;14378;51.796;5.808;2022-07-06T09:53:51;24.40;96.80
26803;DHT22;14378;51.796;5.808;2022-07-06T09:55:54;24.40;96.70
26803;DHT22;14378;51.796;5.808;2022-07-06T09:57:57;24.60;97.00
26803;DHT22;14378;51.796;5.808;2022-07-06T09:59:58;24.60;95.30
26803;DHT22;14378;51.796;5.808;2022-07-06T10:02:04;24.60;95.90
26803;DHT22;14378;51.796;5.808;2022-07-06T10:04:08;24.50;93.90
26803;DHT22;14378;51.796;5.808;2022-07-06T10:06:13;24.60;94.40
26803;DHT22;14378;51.796;5.808;2022-07-06T10:08:23;24.60;94.50
26803;DHT22;14378;51.796;5.808;2022-07-06T10:10:29;24.40;94.50
26803;DHT22;14378;51.796;5.808;2022-07-06T10:12:30;24.40;95.80
26803;DHT22;14378;51.796;5.808;2022-07-06T10:14:33;24.50;95.30
26803;DHT22;14378;51.796;5.808;2022-07-06T10:16:38;24.40;94.60
26803;DHT22;14378;51.796;5.808;2022-07-06T10:18:43;24.40;95.70
26803;DHT22;14378;51.796;5.808;2022-07-06T10:20:44;24.40;95.70
26803;DHT22;14378;51.796;5.808;2022-07-06T10:22:47;24.30;95.40
26803;DHT22;14378;51.796;5.808;2022-07-06T10:24:49;24.40;96.10
26803;DHT22;14378;51.796;5.808;2022-07-06T10:26:51;24.40;94.90
26803;DHT22;14378;51.796;5.808;2022-07-06T10:28:57;24.40;94.50
26803;DHT22;14378;51.796;5.808;2022-07-06T10:31:02;24.40;93.60
26803;DHT22;14378;51.796;5.808;2022-07-06T10:33:03;24.30;93.50
26803;DHT22;14378;51.796;5.808;2022-07-06T10:35:04;24.40;93.90
26803;DHT22;14378;51.796;5.808;2022-07-06T10:37:25;24.40;94.60
26803;DHT22;14378;51.796;5.808;2022-07-06T10:39:33;24.40;95.80
26803;DHT22;14378;51.796;5.808;2022-07-06T10:42:04;24.40;94.90
26803;DHT22;14378;51.796;5.808;2022-07-06T10:44:19;24.30;94.80
26803;DHT22;14378;51.796;5.808;2022-07-06T10:46:28;24.20;94.40
26803;DHT22;14378;51.796;5.808;2022-07-06T10:48:35;24.20;94.80
26803;DHT22;14378;51.796;5.808;2022-07-06T10:50:38;24.20;94.00
26803;DHT22;14378;51.796;5.808;2022-07-06T10:52:49;24.20;94.40
26803;DHT22;14378;51.796;5.808;2022-07-06T10:54:56;24.20;95.40
26803;DHT22;14378;51.796;5.808;2022-07-06T10:57:09;24.30;96.80
26803;DHT22;14378;51.796;5.808;2022-07-06T10:59:15;24.50;97.70
26803;DHT22;14378;51.796;5.808;2022-07-06T11:01:18;24.60;96.10
26803;DHT22;14378;51.796;5.808;2022-07-06T11:05:43;24.80;96.00
26803;DHT22;14378;51.796;5.808;2022-07-06T11:07:50;24.90;93.90
26803;DHT22;14378;51.796;5.808;2022-07-06T11:09:59;24.90;94.00
26803;DHT22;14378;51.796;5.808;2022-07-06T11:12:15;24.90;94.20
26803;DHT22;14378;51.796;5.808;2022-07-06T11:14:17;25.00;95.10
26803;DHT22;14378;51.796;5.808;2022-07-06T11:16:24;25.00;94.70
26803;DHT22;14378;51.796;5.808;2022-07-06T11:18:26;25.10;95.80
26803;DHT22;14378;51.796;5.808;2022-07-06T11:20:28;25.20;94.60
26803;DHT22;14378;51.796;5.808;2022-07-06T11:22:30;25.20;93.80
26803;DHT22;14378;51.796;5.808;2022-07-06T11:24:33;25.20;94.00
26803;DHT22;14378;51.796;5.808;2022-07-06T11:26:35;25.20;94.20
26803;DHT22;14378;51.796;5.808;2022-07-06T11:28:37;25.30;94.80
26803;DHT22;14378;51.796;5.808;2022-07-06T11:30:39;25.40;95.80
26803;DHT22;14378;51.796;5.808;2022-07-06T11:32:40;25.60;95.80
26803;DHT22;14378;51.796;5.808;2022-07-06T11:34:42;25.80;96.20
26803;DHT22;14378;51.796;5.808;2022-07-06T11:36:43;25.90;94.20
26803;DHT22;14378;51.796;5.808;2022-07-06T11:38:46;26.20;95.10
26803;DHT22;14378;51.796;5.808;2022-07-06T11:40:48;26.30;93.70
26803;DHT22;14378;51.796;5.808;2022-07-06T11:42:56;26.10;93.50
26803;DHT22;14378;51.796;5.808;2022-07-06T11:44:57;26.20;92.10
26803;DHT22;14378;51.796;5.808;2022-07-06T11:46:59;26.30;93.90
26803;DHT22;14378;51.796;5.808;2022-07-06T11:49:08;26.40;93.90
26803;DHT22;14378;51.796;5.808;2022-07-06T11:51:09;26.60;93.00
26803;DHT22;14378;51.796;5.808;2022-07-06T11:53:11;26.70;93.30
26803;DHT22;14378;51.796;5.808;2022-07-06T11:55:15;26.80;92.70
26803;DHT22;14378;51.796;5.808;2022-07-06T11:57:16;26.90;93.20
26803;DHT22;14378;51.796;5.808;2022-07-06T11:59:26;26.80;92.10
26803;DHT22;14378;51.796;5.808;2022-07-06T12:01:29;26.40;90.10
26803;DHT22;14378;51.796;5.808;2022-07-06T12:03:33;26.00;90.60
26803;DHT22;14378;51.796;5.808;2022-07-06T12:05:35;25.90;92.20
26803;DHT22;14378;51.796;5.808;2022-07-06T12:07:39;25.80;91.30
26803;DHT22;14378;51.796;5.808;2022-07-06T12:09:42;25.80;92.50
26803;DHT22;14378;51.796;5.808;2022-07-06T12:11:45;25.90;92.60
26803;DHT22;14378;51.796;5.808;2022-07-06T12:13:47;26.00;92.00
26803;DHT22;14378;51.796;5.808;2022-07-06T12:15:48;25.90;91.40
26803;DHT22;14378;51.796;5.808;2022-07-06T12:17:49;25.80;92.40
26803;DHT22;14378;51.796;5.808;2022-07-06T12:19:57;25.80;93.80
26803;DHT22;14378;51.796;5.808;2022-07-06T12:21:58;25.90;91.80
26803;DHT22;14378;51.796;5.808;2022-07-06T12:23:59;25.90;92.50
26803;DHT22;14378;51.796;5.808;2022-07-06T12:26:00;25.90;90.80
26803;DHT22;14378;51.796;5.808;2022-07-06T12:28:01;25.80;90.60
26803;DHT22;14378;51.796;5.808;2022-07-06T12:30:10;25.80;92.20
26803;DHT22;14378;51.796;5.808;2022-07-06T12:32:20;25.90;92.70
26803;DHT22;14378;51.796;5.808;2022-07-06T12:34:28;26.10;93.00
26803;DHT22;14378;51.796;5.808;2022-07-06T12:36:45;25.90;91.30
26803;DHT22;14378;51.796;5.808;2022-07-06T12:38:48;26.00;92.50
26803;DHT22;14378;51.796;5.808;2022-07-06T12:40:49;26.00;91.30
26803;DHT22;14378;51.796;5.808;2022-07-06T12:42:56;26.40;93.90
26803;DHT22;14378;51.796;5.808;2022-07-06T12:44:58;26.50;91.30
26803;DHT22;14378;51.796;5.808;2022-07-06T12:47:04;26.40;91.30
26803;DHT22;14378;51.796;5.808;2022-07-06T12:49:20;26.10;89.20
26803;DHT22;14378;51.796;5.808;2022-07-06T12:51:27;25.60;90.30
26803;DHT22;14378;51.796;5.808;2022-07-06T12:53:28;25.80;94.10
26803;DHT22;14378;51.796;5.808;2022-07-06T12:55:37;25.80;91.60
26803;DHT22;14378;51.796;5.808;2022-07-06T12:57:46;25.70;91.00
26803;DHT22;14378;51.796;5.808;2022-07-06T12:59:55;25.70;91.20
26803;DHT22;14378;51.796;5.808;2022-07-06T13:01:57;25.70;90.90
26803;DHT22;14378;51.796;5.808;2022-07-06T13:03:59;25.80;92.90